CZFA

Faro Airport

Faro, Yukon Territory, Canada
METAR CZFA 240200Z 19004KT 150V280 30SM SCT085 BKN200 15/M06 A2969 RMK AC3CI3 STN OPN FOR MEDEVAC SLP079 DENSITY ALT 3200FT
Observed Flight Rules
May-24 @ 02:00 UTC (12 hours ago) Visual Flight Rules
Wind Visibility Clouds
190° at 4 knots 30 miles
  • Scattered at 8,500' AGL
  • Broken at 20,000' AGL
Temperatures Readings
Current 15°C / 59°F
Dewpoint -6°C / 21°F
Humidity 23%
Altimeter 29.69" Hg
Pressure 1007.9 hPa
Elevation 717
METAR CZFA 240200Z 19004KT 150V280 30SM SCT085 BKN200 15/M06 A2969 RMK AC3CI3 STN OPN FOR MEDEVAC SLP079 DENSITY ALT 3200FT
Observed Flight Rules
May-24 @ 02:00 UTC
(12 hours ago)
VFR
Wind Visibility
190° at 4 knots 30 miles
Clouds
  • Scattered at 8,500' AGL
  • Broken at 20,000' AGL
Temperature Dewpoint
15°C / 59°F -6°C / 21°F
Humidity Altimeter Pressure
23% 29.69" Hg 1007.9 hPa